createdAt,value
2022-07-25T00:02:36.878Z,75080.25
2022-07-25T00:06:39.903Z,75082.34
2022-07-25T00:10:41.635Z,75084.41
2022-07-25T00:14:43.142Z,75078.19
2022-07-25T00:18:44.625Z,75080.25
2022-07-25T00:22:47.463Z,75076.09
2022-07-25T00:26:48.945Z,75084.41
2022-07-25T00:30:50.491Z,75088.56
2022-07-25T00:34:52.144Z,75101.00
2022-07-25T00:38:55.106Z,75107.25
2022-07-25T00:42:56.659Z,75090.63
2022-07-25T00:46:59.196Z,75094.78
2022-07-25T00:51:00.840Z,75103.09
2022-07-25T00:55:06.202Z,75086.50
2022-07-25T00:59:08.188Z,75103.09
2022-07-25T01:03:09.945Z,75111.41
2022-07-25T01:07:11.580Z,75105.16
2022-07-25T01:11:14.629Z,75107.25
2022-07-25T01:15:17.016Z,75096.88
2022-07-25T01:19:18.703Z,75113.47
2022-07-25T01:23:21.669Z,75115.53
2022-07-25T01:27:23.225Z,75134.22
2022-07-25T01:31:24.820Z,75132.16
2022-07-25T01:35:27.491Z,75123.84
2022-07-25T01:39:30.321Z,75134.22
2022-07-25T01:43:31.953Z,75136.31
2022-07-25T01:47:33.588Z,75121.78
2022-07-25T01:51:35.177Z,75119.69
2022-07-25T01:55:37.998Z,75103.09
2022-07-25T01:59:40.978Z,75119.69
2022-07-25T02:03:42.394Z,75150.81
2022-07-25T02:07:44.050Z,75152.91
2022-07-25T02:11:47.054Z,75163.28
2022-07-25T02:15:48.620Z,75169.50
2022-07-25T02:19:50.079Z,75171.59
2022-07-25T02:23:51.582Z,75169.50
2022-07-25T02:27:54.439Z,75161.22
2022-07-25T02:31:55.959Z,75177.81
2022-07-25T02:35:57.515Z,75181.97
2022-07-25T02:39:59.191Z,75198.56
2022-07-25T02:44:02.034Z,75184.03
2022-07-25T02:48:03.920Z,75208.94
2022-07-25T02:52:05.466Z,75198.56
2022-07-25T02:56:07.585Z,75194.41
2022-07-25T03:00:12.510Z,75211.03
2022-07-25T03:04:14.168Z,75213.09
2022-07-25T03:08:17.723Z,75221.41
2022-07-25T03:12:19.354Z,75206.88
2022-07-25T03:16:22.227Z,75190.25
2022-07-25T03:20:24.094Z,75179.88
2022-07-25T03:24:25.531Z,75192.34
2022-07-25T03:28:27.141Z,75194.41
2022-07-25T03:32:29.971Z,75200.66
2022-07-25T03:36:31.585Z,75202.72
2022-07-25T03:40:33.463Z,75200.66
2022-07-25T03:44:34.944Z,75202.72
2022-07-25T03:48:37.806Z,75219.31
2022-07-25T03:52:39.443Z,75219.31
2022-07-25T03:56:43.903Z,75229.69
2022-07-25T04:00:45.878Z,75223.47
2022-07-25T04:04:49.169Z,75206.88
2022-07-25T04:08:50.831Z,75200.66
2022-07-25T04:12:53.827Z,75202.72
2022-07-25T04:16:55.292Z,75184.03
2022-07-25T04:20:58.216Z,75165.34
2022-07-25T04:24:59.705Z,75157.06
2022-07-25T04:29:01.214Z,75142.53
2022-07-25T04:33:02.770Z,75132.16
2022-07-25T04:37:05.638Z,75105.16
2022-07-25T04:41:07.083Z,75088.56
2022-07-25T04:45:09.649Z,75067.81
2022-07-25T04:49:13.490Z,75038.75
2022-07-25T04:53:16.385Z,74993.09
2022-07-25T04:57:18.055Z,74951.56
2022-07-25T05:01:19.587Z,74912.13
2022-07-25T05:09:45.435Z,74899.69
2022-07-25T05:13:46.920Z,74831.19
2022-07-25T05:17:48.481Z,74829.13
2022-07-25T05:21:50.332Z,74837.44
2022-07-25T05:25:53.330Z,74833.28
2022-07-25T05:29:54.929Z,74802.16
2022-07-25T05:33:56.593Z,74814.59
2022-07-25T05:37:58.158Z,74802.16
2022-07-25T05:42:01.009Z,74791.78
2022-07-25T05:46:04.656Z,74764.78
2022-07-25T05:50:07.173Z,74741.97
2022-07-25T05:54:09.246Z,74696.28
2022-07-25T05:58:13.384Z,74673.47
2022-07-25T06:02:15.036Z,74663.09
2022-07-25T06:06:17.526Z,74627.81
2022-07-25T06:10:19.260Z,74575.94
2022-07-25T06:14:22.084Z,74509.53
2022-07-25T06:18:25.150Z,74478.41
2022-07-25T06:22:26.661Z,74455.56
2022-07-25T06:26:28.297Z,74434.81
2022-07-25T06:30:31.653Z,74385.00
2022-07-25T06:34:33.163Z,74374.63
2022-07-25T06:38:34.813Z,74378.78
2022-07-25T06:42:38.454Z,74409.91
2022-07-25T06:46:41.441Z,74434.81
2022-07-25T06:50:43.339Z,74445.19
2022-07-25T06:54:44.805Z,74455.56
2022-07-25T06:58:46.459Z,74443.13
2022-07-25T07:02:51.379Z,74441.03
2022-07-25T07:06:52.920Z,74401.59
2022-07-25T07:10:54.533Z,74349.72
2022-07-25T07:14:56.101Z,74316.53
2022-07-25T07:18:59.102Z,74272.94
2022-07-25T07:23:00.687Z,74221.06
2022-07-25T07:27:02.209Z,74208.63
2022-07-25T07:31:16.501Z,74202.38
2022-07-25T07:35:19.953Z,74200.31
2022-07-25T07:39:21.485Z,74202.38
2022-07-25T07:43:29.056Z,74187.88
2022-07-25T07:47:31.344Z,74208.63
2022-07-25T07:51:34.194Z,74198.25
2022-07-25T07:55:35.828Z,74198.25
2022-07-25T07:59:37.349Z,74169.19
2022-07-25T08:03:39.115Z,74158.81
2022-07-25T08:07:41.956Z,74167.13
2022-07-25T08:11:43.654Z,74200.31
2022-07-25T08:15:46.690Z,74231.44
2022-07-25T08:19:48.169Z,74227.28
2022-07-25T08:23:51.220Z,74250.13
2022-07-25T08:27:52.818Z,74260.50
2022-07-25T08:31:54.534Z,74262.56
2022-07-25T08:35:56.405Z,74225.22
2022-07-25T08:39:59.280Z,74227.28
2022-07-25T08:44:02.435Z,74231.44
2022-07-25T08:48:05.260Z,74227.28
2022-07-25T08:52:08.561Z,74173.34
2022-07-25T08:56:16.090Z,73990.75
2022-07-25T09:00:21.109Z,73804.00
2022-07-25T09:04:23.037Z,73760.41
2022-07-25T09:08:24.776Z,73735.53
2022-07-25T09:12:28.140Z,73675.34
2022-07-25T09:16:30.956Z,73710.63
2022-07-25T09:20:40.289Z,73640.06
2022-07-25T09:24:45.212Z,73872.47
2022-07-25T09:28:50.164Z,73729.28
2022-07-25T09:32:59.482Z,73799.84
2022-07-25T09:37:01.694Z,73903.59
2022-07-25T09:41:03.341Z,73978.28
2022-07-25T09:45:08.445Z,73996.97
2022-07-25T09:49:10.331Z,74098.63
2022-07-25T09:53:12.068Z,74169.19
2022-07-25T09:57:13.856Z,74231.44
2022-07-25T10:01:27.789Z,74268.78
2022-07-25T10:05:40.999Z,74306.16
2022-07-25T10:09:45.558Z,74366.31
2022-07-25T10:13:47.287Z,74387.09
2022-07-25T10:18:02.596Z,74387.09
2022-07-25T10:22:04.241Z,74382.94
2022-07-25T10:26:09.288Z,74382.94
2022-07-25T10:30:19.868Z,74289.53
2022-07-25T10:34:30.541Z,74055.06
2022-07-25T10:38:33.245Z,74125.63
2022-07-25T10:42:34.839Z,74082.03
2022-07-25T10:46:36.729Z,74162.97
2022-07-25T10:50:56.378Z,74015.63
2022-07-25T10:54:59.700Z,73974.13
2022-07-25T10:59:02.283Z,73853.78
2022-07-25T11:03:03.981Z,73899.44
2022-07-25T11:07:10.973Z,73862.09
2022-07-25T11:11:13.050Z,73943.00
2022-07-25T11:15:17.298Z,73996.97
2022-07-25T11:19:21.710Z,74102.78
2022-07-25T11:23:24.567Z,74131.84
2022-07-25T11:27:28.035Z,74042.63
2022-07-25T11:31:29.631Z,74069.59
2022-07-25T11:35:33.264Z,74011.50
2022-07-25T11:39:37.916Z,74096.56
2022-07-25T11:43:48.264Z,74160.88
2022-07-25T11:48:03.263Z,74065.44
2022-07-25T11:52:05.187Z,73951.31
2022-07-25T11:56:39.550Z,73849.63
2022-07-25T12:00:38.881Z,73916.03
2022-07-25T12:04:40.499Z,73783.25
2022-07-25T12:08:42.833Z,73868.31
2022-07-25T12:12:48.490Z,73984.50
2022-07-25T12:16:49.956Z,73799.84
2022-07-25T12:20:51.980Z,73664.97
2022-07-25T12:24:53.643Z,73503.16
2022-07-25T12:28:56.496Z,73399.41
2022-07-25T12:32:59.081Z,73496.91
2022-07-25T12:37:00.664Z,73552.94
2022-07-25T12:41:03.639Z,73463.72
2022-07-25T12:45:08.692Z,73550.88
2022-07-25T12:49:10.689Z,73650.44
2022-07-25T12:53:13.317Z,73783.25
2022-07-25T12:57:15.179Z,73733.44
2022-07-25T13:01:18.060Z,73590.28
2022-07-25T13:05:21.706Z,73635.94
2022-07-25T13:09:23.602Z,73584.06
2022-07-25T13:13:25.138Z,73664.97
2022-07-25T13:17:28.710Z,73816.44
2022-07-25T13:21:30.431Z,73818.50
2022-07-25T13:25:32.813Z,73615.19
2022-07-25T13:29:34.622Z,73633.84
2022-07-25T13:33:37.531Z,73725.16
2022-07-25T13:37:39.167Z,73891.13
2022-07-25T13:41:40.861Z,73893.22
2022-07-25T13:45:42.954Z,73841.34
2022-07-25T13:49:45.896Z,73974.13
2022-07-25T13:53:47.537Z,74007.34
2022-07-25T13:57:49.131Z,74053.00
2022-07-25T14:01:51.814Z,74082.03
2022-07-25T14:05:54.803Z,74115.25
2022-07-25T14:09:56.396Z,74119.38
2022-07-25T14:13:58.416Z,74073.75
2022-07-25T14:17:59.975Z,74077.88
2022-07-25T14:22:03.161Z,74113.16
2022-07-25T14:26:04.883Z,74127.69
2022-07-25T14:30:08.210Z,74148.44
2022-07-25T14:34:09.846Z,74187.88
2022-07-25T14:38:13.231Z,74214.84
2022-07-25T14:42:16.657Z,74210.69
2022-07-25T14:46:18.254Z,74229.38
2022-07-25T14:50:20.191Z,74272.94
2022-07-25T14:54:23.147Z,74266.72
2022-07-25T14:58:24.762Z,74310.31
2022-07-25T15:02:26.201Z,74312.38
2022-07-25T15:06:29.299Z,74368.41
2022-07-25T15:10:32.458Z,74380.84
2022-07-25T15:14:34.053Z,74453.50
2022-07-25T15:18:52.234Z,74478.41
2022-07-25T15:22:58.074Z,74480.47
2022-07-25T15:27:01.551Z,74501.22
2022-07-25T15:31:03.654Z,74474.25
2022-07-25T15:35:06.608Z,74509.53
2022-07-25T15:39:08.735Z,74551.03
2022-07-25T15:43:12.764Z,74559.31
2022-07-25T15:47:14.319Z,74590.47
2022-07-25T15:51:16.466Z,74571.78
2022-07-25T15:55:17.923Z,74557.25
2022-07-25T15:59:20.722Z,74571.78
2022-07-25T16:03:22.246Z,74578.00
2022-07-25T16:07:23.787Z,74559.31
2022-07-25T16:11:25.598Z,74538.56
2022-07-25T16:15:28.738Z,74538.56
2022-07-25T16:19:30.255Z,74486.69
2022-07-25T16:23:36.060Z,74480.47
2022-07-25T16:27:39.947Z,74492.91
2022-07-25T16:31:42.855Z,74526.13
2022-07-25T16:35:45.593Z,74530.28
2022-07-25T16:39:47.211Z,74488.78
2022-07-25T16:43:48.762Z,74499.16
2022-07-25T16:47:51.678Z,74546.88
2022-07-25T16:51:53.170Z,74559.31
2022-07-25T16:55:56.674Z,74609.13
2022-07-25T16:59:58.746Z,74596.69
2022-07-25T17:04:01.745Z,74609.13
2022-07-25T17:08:03.625Z,74638.19
2022-07-25T17:12:05.799Z,74650.63
2022-07-25T17:16:08.793Z,74648.56
2022-07-25T17:20:12.443Z,74642.34
2022-07-25T17:24:14.221Z,74644.41
2022-07-25T17:28:15.889Z,74638.19
2022-07-25T17:32:17.437Z,74683.84
2022-07-25T17:36:20.325Z,74708.75
2022-07-25T17:40:22.052Z,74706.69
2022-07-25T17:44:23.574Z,74692.16
2022-07-25T17:48:25.151Z,74704.59
2022-07-25T17:52:28.025Z,74696.28
2022-07-25T17:56:29.513Z,74690.06
2022-07-25T18:00:30.997Z,74685.91
2022-07-25T18:04:32.501Z,74710.81
2022-07-25T18:08:35.336Z,74683.84
2022-07-25T18:12:37.338Z,74690.06
2022-07-25T18:16:40.404Z,74696.28
2022-07-25T18:20:42.137Z,74712.91
2022-07-25T18:24:44.969Z,74706.69
2022-07-25T18:28:46.494Z,74739.88
2022-07-25T18:32:48.885Z,74733.66
2022-07-25T18:36:50.473Z,74739.88
2022-07-25T18:41:18.928Z,74750.25
2022-07-25T18:45:16.541Z,74773.09
2022-07-25T18:49:19.373Z,74781.38
2022-07-25T18:53:20.956Z,74810.44
2022-07-25T18:57:23.845Z,74812.53
2022-07-25T19:01:25.954Z,74835.34
2022-07-25T19:05:28.394Z,74862.34
2022-07-25T19:09:30.131Z,74908.00
2022-07-25T19:13:48.754Z,74903.84
2022-07-25T19:17:50.876Z,74897.63
2022-07-25T19:21:52.490Z,74908.00
2022-07-25T19:25:54.946Z,74928.75
2022-07-25T19:29:57.815Z,74939.13
2022-07-25T19:33:59.288Z,74970.25
2022-07-25T19:38:00.809Z,74974.41
2022-07-25T19:42:02.883Z,75015.91
2022-07-25T19:46:06.494Z,75015.91
2022-07-25T19:50:08.606Z,75015.91
2022-07-25T19:54:10.928Z,75030.44
2022-07-25T19:58:12.860Z,75036.66
2022-07-25T20:02:16.012Z,75059.50
2022-07-25T20:06:18.352Z,75069.88
2022-07-25T20:10:20.047Z,75074.03
2022-07-25T20:14:21.817Z,75080.25
2022-07-25T20:18:24.717Z,75088.56
2022-07-25T20:22:26.380Z,75117.63
2022-07-25T20:26:28.842Z,75115.53
2022-07-25T20:30:34.630Z,75115.53
2022-07-25T20:34:37.925Z,75142.53
2022-07-25T20:38:39.521Z,75165.34
2022-07-25T20:42:40.976Z,75163.28
2022-07-25T20:46:42.617Z,75190.25
2022-07-25T20:50:45.472Z,75219.31
2022-07-25T20:54:46.966Z,75235.94
2022-07-25T20:58:48.618Z,75254.59
2022-07-25T21:02:50.314Z,75252.53
2022-07-25T21:06:53.330Z,75285.75
2022-07-25T21:10:58.138Z,75285.75
2022-07-25T21:14:59.668Z,75291.97
2022-07-25T21:19:01.228Z,75310.66
2022-07-25T21:23:04.538Z,75339.72
2022-07-25T21:27:06.223Z,75387.47
2022-07-25T21:31:07.707Z,75422.75
2022-07-25T21:35:09.988Z,75426.91
2022-07-25T21:39:12.990Z,75406.13
2022-07-25T21:43:14.665Z,75397.84
2022-07-25T21:47:16.134Z,75404.06
2022-07-25T21:51:19.221Z,75389.53
2022-07-25T21:55:26.218Z,75364.63
2022-07-25T21:59:27.710Z,75343.88
2022-07-25T22:03:29.266Z,75345.94
2022-07-25T22:07:30.898Z,75331.41
2022-07-25T22:11:42.758Z,75318.97
2022-07-25T22:15:48.081Z,75327.25
2022-07-25T22:19:49.598Z,75323.09
2022-07-25T22:23:51.089Z,75335.56
2022-07-25T22:27:54.117Z,75335.56
2022-07-25T22:31:55.709Z,75339.72
2022-07-25T22:35:57.366Z,75335.56
2022-07-25T22:40:01.160Z,75352.16
2022-07-25T22:44:04.979Z,75356.31
2022-07-25T22:48:06.743Z,75360.47
2022-07-25T22:52:08.640Z,75387.47
2022-07-25T22:56:10.260Z,75424.81
2022-07-25T23:00:14.040Z,75420.66
2022-07-25T23:04:15.842Z,75435.19
2022-07-25T23:08:17.546Z,75462.19
2022-07-25T23:12:19.005Z,75470.47
2022-07-25T23:16:22.090Z,75468.41
2022-07-25T23:20:23.636Z,75476.72
2022-07-25T23:24:25.108Z,75474.63
2022-07-25T23:28:26.941Z,75472.56
2022-07-25T23:32:29.793Z,75472.56
2022-07-25T23:36:31.465Z,75460.09
2022-07-25T23:40:32.965Z,75470.47
2022-07-25T23:44:34.567Z,75462.19
2022-07-25T23:48:39.489Z,75480.88
2022-07-25T23:52:41.132Z,75495.41
2022-07-25T23:56:42.705Z,75493.31
